Terminal Aerodrome Forecast
Issued by NWS Louisville, KY

Home | Current Version | Previous Version | Text Only | Print | Product List | Glossary On
Versions: 1 2 3 4 5 6 7 8 9 10 11 12 13 14 15 16 17
000
FTUS43 KLMK 210500
TAFLEX
TAF
KLEX 210533Z 2106/2206 25005KT P6SM SCT050
     FM210900 30004KT P6SM BKN030
     FM211400 34009KT P6SM BKN035
     FM220000 01005KT P6SM SKC=

USA.gov is the U.S. government's official web portal to all federal, state and local government web resources and services.